Time;durP1;ratioP1;P1;durP2;ratioP2;P2;SDS_P1;SDS_P2;PMS_P1;PMS_P2;Temp;Humidity;BMP_temperature;BMP_pressure;BME280_temperature;BME280_humidity;BME280_pressure;Samples;Min_cycle;Max_cycle;Signal;HPM_P1;HPM_P2
2022/01/16 00:00:26;;;;;;;15.48;7.45;;;21.50;54.60;;;;;;4991398;28;20027;-70
2022/01/16 00:05:26;;;;;;;14.27;6.68;;;21.40;54.70;;;;;;4992529;28;20561;-70
2022/01/16 00:07:52;;;;;;;15.02;7.10;;;21.50;54.50;;;;;;4991950;28;20069;-69
2022/01/16 00:10:19;;;;;;;20.05;7.10;;;21.50;54.70;;;;;;4991342;28;20066;-70
2022/01/16 00:12:48;;;;;;;13.20;7.05;;;21.40;54.60;;;;;;4991176;28;20034;-70
2022/01/16 00:15:15;;;;;;;13.85;7.20;;;21.40;54.50;;;;;;4991512;28;20026;-70
2022/01/16 00:17:52;;;;;;;13.93;6.63;;;21.40;54.40;;;;;;4991303;28;20031;-70
2022/01/16 00:20:18;;;;;;;16.52;7.18;;;21.40;54.60;;;;;;4991266;28;20045;-70
2022/01/16 00:22:46;;;;;;;11.77;6.20;;;21.40;54.50;;;;;;4991994;28;20037;-70
2022/01/16 00:25:12;;;;;;;13.05;6.43;;;21.40;54.60;;;;;;4990170;28;20027;-70
2022/01/16 00:27:37;;;;;;;13.57;6.65;;;21.40;54.40;;;;;;4991105;28;20553;-70
2022/01/16 00:30:05;;;;;;;14.05;6.35;;;21.40;54.30;;;;;;4990743;28;20031;-70
2022/01/16 00:32:30;;;;;;;16.38;6.45;;;21.40;54.60;;;;;;4992907;28;20033;-70
2022/01/16 00:34:56;;;;;;;16.13;6.95;;;21.40;54.50;;;;;;4979361;28;20030;-71
2022/01/16 00:37:22;;;;;;;15.02;6.03;;;21.40;54.50;;;;;;4979135;28;20034;-70
2022/01/16 00:39:47;;;;;;;11.20;5.88;;;21.40;54.50;;;;;;4979017;28;20405;-71
2022/01/16 00:42:13;;;;;;;13.70;6.13;;;21.40;54.30;;;;;;4979142;28;20482;-70
2022/01/16 00:44:39;;;;;;;13.02;6.13;;;21.40;54.50;;;;;;4978232;28;20614;-71
2022/01/16 00:47:05;;;;;;;15.77;6.63;;;21.40;54.40;;;;;;4978191;28;20093;-70
2022/01/16 00:49:34;;;;;;;16.02;6.88;;;21.40;54.50;;;;;;4983301;28;20398;-71
2022/01/16 00:52:00;;;;;;;12.57;6.33;;;21.40;54.50;;;;;;4997471;28;20117;-71
2022/01/16 00:54:26;;;;;;;13.27;6.53;;;21.40;54.60;;;;;;4998387;28;20060;-70
2022/01/16 00:56:51;;;;;;;12.32;6.13;;;21.40;54.70;;;;;;4997537;28;20037;-70
2022/01/16 00:59:17;;;;;;;13.15;6.00;;;21.40;54.70;;;;;;4997877;28;20033;-71
2022/01/16 01:01:43;;;;;;;15.95;6.75;;;21.40;55.10;;;;;;4998073;28;20022;-70
2022/01/16 01:04:08;;;;;;;16.65;6.25;;;21.40;54.60;;;;;;4997124;28;20119;-70
2022/01/16 01:06:34;;;;;;;23.77;7.15;;;21.40;54.40;;;;;;4997472;28;20034;-72
2022/01/16 01:09:00;;;;;;;20.88;6.68;;;21.40;54.90;;;;;;4997703;28;20033;-72
2022/01/16 01:11:28;;;;;;;17.25;5.57;;;21.10;46.00;;;;;;4998082;28;20026;-72
2022/01/16 01:14:07;;;;;;;21.63;5.88;;;20.60;41.30;;;;;;4998287;28;20070;-70
2022/01/16 01:19:26;;;;;;;17.80;5.95;;;20.60;44.40;;;;;;4998054;28;20053;-70
2022/01/16 01:21:52;;;;;;;16.17;5.10;;;20.70;45.60;;;;;;4998298;28;20029;-70
2022/01/16 01:24:18;;;;;;;17.42;5.15;;;20.80;46.60;;;;;;4997860;28;20038;-69
2022/01/16 01:29:36;;;;;;;17.17;5.25;;;20.90;47.70;;;;;;4934454;28;20047;-70
2022/01/16 01:32:02;;;;;;;14.00;5.05;;;21.00;48.10;;;;;;4972903;28;20037;-70
2022/01/16 01:34:28;;;;;;;17.13;5.25;;;21.00;48.80;;;;;;4978007;28;20030;-70
2022/01/16 01:36:54;;;;;;;16.73;4.70;;;21.10;48.50;;;;;;4945732;28;20035;-70
2022/01/16 01:39:22;;;;;;;20.60;4.90;;;21.10;49.00;;;;;;4984142;28;20034;-70
2022/01/16 01:41:51;;;;;;;15.85;5.07;;;21.10;49.00;;;;;;4978330;28;20113;-72
2022/01/16 01:52:31;;;;;;;18.05;5.90;;;21.10;48.70;;;;;;4975857;28;20026;-71
2022/01/16 01:54:57;;;;;;;18.30;6.00;;;21.10;48.70;;;;;;4977490;28;20376;-71
2022/01/16 01:57:23;;;;;;;15.38;5.97;;;21.10;49.00;;;;;;4994066;28;20046;-70
2022/01/16 01:59:49;;;;;;;18.80;6.80;;;21.20;48.80;;;;;;4985295;28;20027;-71
2022/01/16 02:02:14;;;;;;;20.75;6.38;;;21.20;49.10;;;;;;4975557;28;20039;-71
2022/01/16 02:04:40;;;;;;;19.00;6.50;;;21.20;49.00;;;;;;4975184;28;20030;-71
2022/01/16 02:07:06;;;;;;;21.25;6.38;;;21.20;49.30;;;;;;4973634;28;20046;-71
2022/01/16 02:09:32;;;;;;;16.25;6.40;;;21.20;49.50;;;;;;4974798;28;20027;-71
2022/01/16 02:11:58;;;;;;;16.27;6.20;;;21.20;49.50;;;;;;4975276;28;20031;-71
2022/01/16 02:14:33;;;;;;;15.02;5.70;;;21.20;49.70;;;;;;4975250;28;20499;-71
2022/01/16 02:28:57;;;;;;;17.08;5.82;;;21.10;50.10;;;;;;4917769;29;20040;-72
2022/01/16 02:31:25;;;;;;;16.73;5.65;;;21.20;50.20;;;;;;4933597;29;20050;-71
2022/01/16 02:36:45;;;;;;;16.30;5.53;;;21.20;50.40;;;;;;4954281;29;20067;-71
2022/01/16 02:39:13;;;;;;;14.93;5.78;;;21.20;50.40;;;;;;4968617;28;20073;-71
2022/01/16 02:41:40;;;;;;;15.50;5.40;;;21.20;50.50;;;;;;4973131;28;20031;-71
2022/01/16 02:44:22;;;;;;;14.05;5.50;;;21.20;50.60;;;;;;4989578;28;20093;-71
2022/01/16 02:46:48;;;;;;;14.30;5.80;;;21.20;50.80;;;;;;4972875;28;20035;-71
2022/01/16 02:49:18;;;;;;;15.00;4.97;;;21.20;50.70;;;;;;4974356;28;20023;-71
2022/01/16 02:51:44;;;;;;;13.57;4.75;;;21.20;50.80;;;;;;4973480;28;20027;-71
2022/01/16 02:54:10;;;;;;;12.30;4.88;;;21.20;50.70;;;;;;4974287;28;20105;-71
2022/01/16 02:56:37;;;;;;;13.13;4.82;;;21.20;50.80;;;;;;4974085;28;20078;-71
2022/01/16 02:59:03;;;;;;;10.82;4.55;;;21.10;50.80;;;;;;4973044;28;20041;-71
2022/01/16 03:01:29;;;;;;;13.23;5.28;;;21.10;50.90;;;;;;4974135;28;20114;-71
2022/01/16 03:03:54;;;;;;;13.95;5.15;;;21.20;50.90;;;;;;4989359;28;20557;-71
2022/01/16 03:06:20;;;;;;;13.23;5.05;;;21.10;50.90;;;;;;4989180;28;20081;-70
2022/01/16 03:08:46;;;;;;;12.75;5.30;;;21.10;51.00;;;;;;4974170;28;20391;-71
2022/01/16 03:11:20;;;;;;;16.05;4.97;;;21.10;51.10;;;;;;4974274;28;20034;-71
2022/01/16 03:13:48;;;;;;;12.70;4.85;;;21.10;51.00;;;;;;4974122;28;20023;-71
2022/01/16 03:16:20;;;;;;;12.60;4.43;;;21.10;51.00;;;;;;4956655;28;20019;-71
2022/01/16 03:24:16;;;;;;;18.58;4.65;;;21.10;51.30;;;;;;4973703;28;20035;-71
2022/01/16 03:26:41;;;;;;;13.07;4.72;;;21.10;51.30;;;;;;4973512;28;20046;-71
2022/01/16 03:29:08;;;;;;;13.20;4.45;;;21.10;51.30;;;;;;4973677;28;20030;-71
2022/01/16 03:31:34;;;;;;;12.38;4.70;;;21.20;51.50;;;;;;4973613;28;20019;-69
2022/01/16 03:34:00;;;;;;;14.85;4.28;;;21.10;51.30;;;;;;4973828;28;20027;-71
2022/01/16 03:36:26;;;;;;;13.75;4.53;;;21.20;51.60;;;;;;4973081;28;20042;-71
2022/01/16 03:38:52;;;;;;;11.30;4.57;;;21.20;51.40;;;;;;4973631;28;20030;-71
2022/01/16 03:41:18;;;;;;;10.38;3.90;;;21.20;51.50;;;;;;4973174;28;20031;-70
2022/01/16 03:43:43;;;;;;;11.80;4.28;;;21.20;51.50;;;;;;4972552;28;20034;-71
2022/01/16 03:46:09;;;;;;;12.32;4.97;;;21.10;51.40;;;;;;4973244;28;20106;-71
2022/01/16 03:48:35;;;;;;;12.98;4.75;;;21.10;51.50;;;;;;4972491;28;20507;-71
2022/01/16 03:51:01;;;;;;;12.70;4.32;;;21.10;51.50;;;;;;4973032;28;20031;-71
2022/01/16 03:53:26;;;;;;;12.52;4.07;;;21.10;51.60;;;;;;4972431;28;20542;-71
2022/01/16 03:55:52;;;;;;;10.82;4.40;;;21.10;51.50;;;;;;4972932;28;20490;-71
2022/01/16 03:58:18;;;;;;;10.20;4.18;;;21.10;51.60;;;;;;4973318;28;20029;-71
2022/01/16 04:00:44;;;;;;;9.32;4.05;;;21.10;51.70;;;;;;4972831;28;20494;-70
2022/01/16 04:03:11;;;;;;;13.25;4.65;;;21.10;51.80;;;;;;4973342;28;20391;-70
2022/01/16 04:05:37;;;;;;;14.68;4.50;;;21.10;51.70;;;;;;4971322;28;20471;-71
2022/01/16 04:08:03;;;;;;;13.02;4.38;;;21.10;51.80;;;;;;4973006;28;20049;-71
2022/01/16 04:10:29;;;;;;;14.00;4.43;;;21.10;51.70;;;;;;4971392;28;20479;-70
2022/01/16 04:12:55;;;;;;;11.05;4.32;;;21.10;51.80;;;;;;4971923;28;20550;-70
2022/01/16 04:15:33;;;;;;;10.60;4.22;;;21.10;51.90;;;;;;4972770;28;20061;-70
2022/01/16 04:18:00;;;;;;;12.07;4.20;;;21.10;51.90;;;;;;4973084;28;20030;-70
2022/01/16 04:20:26;;;;;;;11.55;4.28;;;21.10;51.80;;;;;;4972633;28;20040;-71
2022/01/16 04:22:52;;;;;;;9.55;4.50;;;21.10;52.70;;;;;;4973058;28;20117;-71
2022/01/16 04:25:18;;;;;;;8.90;3.63;;;21.10;52.00;;;;;;4972475;28;20034;-71
2022/01/16 04:27:44;;;;;;;9.70;4.00;;;21.10;52.10;;;;;;4971824;28;20037;-71
2022/01/16 04:30:11;;;;;;;10.32;3.78;;;21.10;52.10;;;;;;4972582;28;20039;-72
2022/01/16 04:32:37;;;;;;;11.55;4.25;;;21.10;52.10;;;;;;4973022;28;20077;-71
2022/01/16 04:35:03;;;;;;;8.70;3.70;;;21.10;52.10;;;;;;4971499;28;20498;-71
2022/01/16 04:37:29;;;;;;;12.45;4.78;;;21.10;52.00;;;;;;4971596;28;20271;-71
2022/01/16 04:39:59;;;;;;;9.55;4.00;;;21.10;52.20;;;;;;4972654;28;20026;-71
2022/01/16 04:45:10;;;;;;;11.00;4.30;;;21.10;52.30;;;;;;4972541;28;20403;-71
2022/01/16 04:47:35;;;;;;;8.77;3.63;;;21.10;52.20;;;;;;4972653;28;20030;-71
2022/01/16 04:50:01;;;;;;;11.07;3.70;;;21.10;52.20;;;;;;4972439;28;20031;-70
2022/01/16 04:52:27;;;;;;;10.77;3.70;;;21.10;52.20;;;;;;4972636;28;20499;-71
2022/01/16 04:54:53;;;;;;;14.77;4.13;;;21.10;52.30;;;;;;4972639;28;20063;-70
2022/01/16 04:57:18;;;;;;;8.88;3.83;;;21.10;52.40;;;;;;4987418;28;20027;-70
2022/01/16 04:59:44;;;;;;;10.50;3.75;;;21.10;52.40;;;;;;4971172;28;20517;-71
2022/01/16 05:02:10;;;;;;;10.23;3.95;;;21.10;52.30;;;;;;4972282;28;20059;-71
2022/01/16 05:04:37;;;;;;;11.30;4.07;;;21.10;52.30;;;;;;4972434;28;20054;-71
2022/01/16 05:07:03;;;;;;;9.60;4.10;;;21.10;52.70;;;;;;4971360;28;20493;-70
2022/01/16 05:09:29;;;;;;;9.40;3.38;;;21.00;52.50;;;;;;4954967;28;20049;-70
2022/01/16 05:11:57;;;;;;;9.68;3.55;;;21.10;52.40;;;;;;4971477;28;20407;-70
2022/01/16 05:17:07;;;;;;;10.32;4.10;;;21.10;52.60;;;;;;4972547;28;20046;-70
2022/01/16 05:19:33;;;;;;;9.18;3.75;;;21.00;52.40;;;;;;4972813;28;20033;-71
2022/01/16 05:21:58;;;;;;;12.80;4.32;;;21.00;52.30;;;;;;4976148;28;20034;-70
2022/01/16 05:24:30;;;;;;;10.38;3.58;;;21.10;52.40;;;;;;4976023;28;20023;-70
2022/01/16 05:26:56;;;;;;;8.63;3.70;;;21.00;52.40;;;;;;4974589;28;20392;-70
2022/01/16 05:29:22;;;;;;;12.70;3.78;;;21.10;52.70;;;;;;4975772;28;20030;-70
2022/01/16 05:31:47;;;;;;;9.68;3.63;;;21.00;52.40;;;;;;4975945;28;20031;-70
2022/01/16 05:34:18;;;;;;;8.95;3.50;;;21.00;52.50;;;;;;4975481;28;20098;-70
2022/01/16 05:36:44;;;;;;;8.52;3.47;;;21.00;52.50;;;;;;4975938;28;20078;-70
2022/01/16 05:39:11;;;;;;;7.93;3.47;;;21.00;52.50;;;;;;4975954;28;20039;-71
2022/01/16 05:41:37;;;;;;;7.97;3.45;;;21.00;52.60;;;;;;4975367;28;20062;-71
2022/01/16 05:44:03;;;;;;;10.30;3.65;;;21.00;52.60;;;;;;4974509;28;20065;-70
2022/01/16 05:46:29;;;;;;;9.75;3.88;;;21.00;52.50;;;;;;4974645;28;20030;-70
2022/01/16 05:48:54;;;;;;;11.68;4.03;;;21.00;52.50;;;;;;4975657;28;20502;-70
2022/01/16 05:51:20;;;;;;;11.05;3.50;;;21.00;52.60;;;;;;4974013;28;20050;-70
2022/01/16 05:53:46;;;;;;;7.30;3.33;;;21.00;52.50;;;;;;4974249;28;20435;-71
2022/01/16 05:56:12;;;;;;;9.98;4.05;;;21.00;52.50;;;;;;4971889;28;20097;-71
2022/01/16 05:58:41;;;;;;;8.60;3.67;;;21.00;52.70;;;;;;4990789;28;20027;-71
2022/01/16 06:01:07;;;;;;;9.67;3.63;;;21.00;52.50;;;;;;4974840;28;20023;-71
2022/01/16 06:03:33;;;;;;;7.50;3.58;;;21.00;52.60;;;;;;4974732;28;20619;-71
2022/01/16 06:05:59;;;;;;;7.80;3.60;;;21.00;52.90;;;;;;4973964;28;20050;-71
2022/01/16 06:08:25;;;;;;;10.40;4.05;;;21.00;52.80;;;;;;4974759;28;20066;-71
2022/01/16 06:10:51;;;;;;;9.88;3.72;;;21.00;52.80;;;;;;4957837;28;20031;-71
2022/01/16 06:13:16;;;;;;;8.75;3.22;;;21.00;52.50;;;;;;4975180;28;20027;-70
2022/01/16 06:15:42;;;;;;;9.27;3.60;;;21.00;52.70;;;;;;4974396;28;20122;-71
2022/01/16 06:18:08;;;;;;;10.93;3.72;;;21.00;52.70;;;;;;4989712;28;20042;-71
2022/01/16 06:20:34;;;;;;;8.75;3.53;;;21.00;52.50;;;;;;4973732;28;20027;-71
2022/01/16 06:23:00;;;;;;;9.20;3.83;;;21.00;52.60;;;;;;4957709;28;20108;-71
2022/01/16 06:25:26;;;;;;;8.38;3.22;;;21.00;52.70;;;;;;4973322;28;20509;-71
2022/01/16 06:27:52;;;;;;;10.52;3.63;;;21.00;52.50;;;;;;4974830;28;20068;-70
2022/01/16 06:30:19;;;;;;;7.43;3.55;;;21.00;52.70;;;;;;4974122;28;20475;-70
2022/01/16 06:32:46;;;;;;;16.92;6.20;;;21.00;52.50;;;;;;4989914;28;20053;-71
2022/01/16 06:35:14;;;;;;;19.17;7.80;;;20.90;47.60;;;;;;4989531;28;20490;-71
2022/01/16 06:37:39;;;;;;;22.67;7.60;;;20.50;41.00;;;;;;4989546;28;20081;-71
2022/01/16 06:40:06;;;;;;;21.23;7.57;;;20.10;38.10;;;;;;4989533;28;20550;-71
2022/01/16 06:42:32;;;;;;;17.45;6.75;;;20.10;40.10;;;;;;4957604;28;20042;-71
2022/01/16 06:44:58;;;;;;;17.83;6.65;;;20.20;40.70;;;;;;4980055;28;20034;-72
2022/01/16 06:47:24;;;;;;;18.25;6.90;;;20.40;43.00;;;;;;4989592;28;20031;-71
2022/01/16 06:49:49;;;;;;;18.05;6.60;;;20.40;43.30;;;;;;4957007;28;20039;-72
2022/01/16 06:52:16;;;;;;;15.77;6.05;;;20.50;43.80;;;;;;4957382;28;20027;-72
2022/01/16 06:54:41;;;;;;;16.58;6.00;;;20.60;44.50;;;;;;4989127;28;20386;-72
2022/01/16 06:57:08;;;;;;;17.20;6.00;;;20.60;44.80;;;;;;4974460;28;20041;-72
2022/01/16 06:59:36;;;;;;;17.05;5.78;;;20.60;45.30;;;;;;4974151;28;20030;-71
2022/01/16 07:02:01;;;;;;;16.83;5.50;;;20.60;45.80;;;;;;4974553;28;20034;-72
2022/01/16 07:04:27;;;;;;;16.33;5.78;;;20.70;46.10;;;;;;4974038;28;20026;-71
2022/01/16 07:06:53;;;;;;;14.18;5.40;;;20.70;46.00;;;;;;4989179;28;20031;-71
2022/01/16 07:09:19;;;;;;;14.20;5.22;;;20.70;46.30;;;;;;4973948;28;20031;-72
2022/01/16 07:11:45;;;;;;;13.40;4.97;;;20.70;46.20;;;;;;4974161;28;20029;-72
2022/01/16 07:14:10;;;;;;;14.68;5.10;;;20.70;46.50;;;;;;4988819;28;20031;-71
2022/01/16 07:16:36;;;;;;;15.65;5.45;;;20.80;46.70;;;;;;4974118;28;20472;-71
2022/01/16 07:19:02;;;;;;;15.02;5.45;;;20.70;46.70;;;;;;4974010;28;20096;-71
2022/01/16 07:21:27;;;;;;;13.35;5.43;;;20.80;46.80;;;;;;4972642;28;20545;-71
2022/01/16 07:23:53;;;;;;;12.30;5.35;;;20.80;47.20;;;;;;4972395;28;20035;-71
2022/01/16 07:26:19;;;;;;;14.80;5.68;;;20.80;47.30;;;;;;4986309;23;20047;-71
2022/01/16 07:28:46;;;;;;;15.40;5.78;;;20.80;47.30;;;;;;4973366;28;20387;-71
2022/01/16 07:31:12;;;;;;;12.80;5.15;;;20.80;47.40;;;;;;4972780;28;20023;-71
2022/01/16 07:33:38;;;;;;;11.00;5.22;;;20.80;47.50;;;;;;4973888;28;20335;-71
2022/01/16 07:36:04;;;;;;;11.95;4.38;;;20.80;47.60;;;;;;4967646;28;20065;-71
2022/01/16 07:38:31;;;;;;;13.13;5.20;;;20.80;47.80;;;;;;4953419;29;20509;-71
2022/01/16 07:40:56;;;;;;;12.82;5.00;;;20.80;47.80;;;;;;4952864;29;20034;-71
2022/01/16 07:43:23;;;;;;;15.95;5.63;;;20.80;48.10;;;;;;4953643;28;20396;-71
2022/01/16 07:45:48;;;;;;;12.10;4.57;;;20.80;48.10;;;;;;4968737;28;20053;-71
2022/01/16 07:48:14;;;;;;;12.77;4.97;;;20.80;48.20;;;;;;4973548;28;20527;-71
2022/01/16 07:50:40;;;;;;;12.68;4.93;;;20.80;48.30;;;;;;4971756;28;20579;-71
2022/01/16 07:53:07;;;;;;;14.38;4.65;;;20.80;48.20;;;;;;4973455;28;20062;-71
2022/01/16 07:55:33;;;;;;;13.85;5.05;;;20.80;48.20;;;;;;4960135;28;20106;-71
2022/01/16 07:57:59;;;;;;;11.60;4.70;;;20.80;48.30;;;;;;4954276;28;20027;-71
2022/01/16 08:00:26;;;;;;;13.70;5.07;;;20.80;48.70;;;;;;4953746;28;20027;-71
2022/01/16 08:02:52;;;;;;;10.25;4.82;;;20.80;48.60;;;;;;4952852;29;20035;-70
2022/01/16 08:05:19;;;;;;;13.75;5.13;;;20.80;48.60;;;;;;4964577;28;20450;-70
2022/01/16 08:07:45;;;;;;;13.43;4.40;;;20.80;48.70;;;;;;4973146;28;20031;-71
2022/01/16 08:10:11;;;;;;;11.82;4.47;;;20.80;48.70;;;;;;4972842;28;20026;-71
2022/01/16 08:12:37;;;;;;;11.60;5.05;;;20.80;48.80;;;;;;4973204;28;20030;-71
2022/01/16 08:15:04;;;;;;;10.95;4.53;;;20.80;49.00;;;;;;4964435;28;20078;-70
2022/01/16 08:17:30;;;;;;;11.95;5.15;;;20.80;49.00;;;;;;4953736;28;20027;-70
2022/01/16 08:19:56;;;;;;;15.60;5.60;;;20.80;49.10;;;;;;4953649;28;20034;-70
2022/01/16 08:22:22;;;;;;;12.57;4.90;;;20.80;49.10;;;;;;4953815;28;20528;-71
2022/01/16 08:24:47;;;;;;;10.93;4.85;;;20.90;49.10;;;;;;4959415;28;20407;-71
2022/01/16 08:27:15;;;;;;;14.10;4.93;;;20.80;49.40;;;;;;4972856;28;20074;-71
2022/01/16 08:29:42;;;;;;;11.90;4.95;;;20.80;49.20;;;;;;4955737;28;20030;-71
2022/01/16 08:32:08;;;;;;;13.10;4.38;;;20.80;49.40;;;;;;4973318;28;20026;-71
2022/01/16 08:34:34;;;;;;;11.45;4.82;;;20.80;49.30;;;;;;4968796;28;20028;-71
2022/01/16 08:36:59;;;;;;;11.52;4.47;;;20.90;49.40;;;;;;4953558;28;20023;-70
2022/01/16 08:39:25;;;;;;;13.00;4.85;;;20.90;49.60;;;;;;4953646;28;20050;-71
2022/01/16 08:41:51;;;;;;;12.38;5.03;;;20.90;49.30;;;;;;4953787;28;20111;-71
2022/01/16 08:44:19;;;;;;;11.02;4.50;;;20.90;49.30;;;;;;4955238;28;20391;-70
2022/01/16 08:46:45;;;;;;;10.65;4.50;;;20.90;49.40;;;;;;4972791;28;20122;-71
2022/01/16 08:49:10;;;;;;;11.00;4.90;;;20.90;49.60;;;;;;4971676;28;20110;-71
2022/01/16 08:51:36;;;;;;;9.50;4.40;;;20.90;49.10;;;;;;4972584;28;20109;-71
2022/01/16 08:54:02;;;;;;;9.40;4.40;;;20.90;49.70;;;;;;4974296;28;20578;-71
2022/01/16 08:56:28;;;;;;;13.38;4.95;;;20.90;49.50;;;;;;4957679;28;20107;-71
2022/01/16 08:58:54;;;;;;;10.52;4.30;;;20.90;49.60;;;;;;4956299;29;20031;-71
2022/01/16 09:01:19;;;;;;;10.38;4.55;;;20.90;49.60;;;;;;4957123;28;20479;-71
2022/01/16 09:03:47;;;;;;;9.73;4.55;;;20.90;49.90;;;;;;4956305;29;20043;-71
2022/01/16 09:06:13;;;;;;;10.20;4.47;;;20.90;50.00;;;;;;4961527;28;20046;-71
2022/01/16 09:08:39;;;;;;;9.85;4.72;;;20.90;49.80;;;;;;4957263;28;20032;-71
2022/01/16 09:11:07;;;;;;;10.05;4.18;;;20.90;49.60;;;;;;4956825;28;20480;-71
2022/01/16 09:13:33;;;;;;;9.13;4.50;;;20.90;49.80;;;;;;4957045;28;20035;-71
2022/01/16 09:16:00;;;;;;;8.82;3.97;;;20.90;49.60;;;;;;4964559;28;20399;-71
2022/01/16 09:18:26;;;;;;;11.25;4.75;;;20.90;49.90;;;;;;4976306;28;20430;-71
2022/01/16 09:20:53;;;;;;;11.23;4.65;;;20.90;49.90;;;;;;4976034;28;20041;-71
2022/01/16 09:23:19;;;;;;;8.75;4.32;;;20.80;50.00;;;;;;4976278;28;20034;-71
2022/01/16 09:25:45;;;;;;;10.32;4.40;;;20.90;50.00;;;;;;4969666;28;20030;-71
2022/01/16 09:28:11;;;;;;;8.82;4.18;;;20.80;49.80;;;;;;4953392;28;20024;-71
2022/01/16 09:30:36;;;;;;;9.48;4.38;;;20.90;50.20;;;;;;4956310;28;20159;-71
2022/01/16 09:33:02;;;;;;;8.13;4.00;;;20.90;50.10;;;;;;4957009;28;20480;-71
2022/01/16 09:35:31;;;;;;;9.63;4.15;;;20.90;50.30;;;;;;4959670;28;20026;-71
2022/01/16 09:37:58;;;;;;;9.70;4.38;;;20.90;50.10;;;;;;4974859;28;20039;-71
2022/01/16 09:40:23;;;;;;;8.43;3.97;;;20.90;50.40;;;;;;4975533;28;20038;-72
2022/01/16 09:42:49;;;;;;;9.15;4.20;;;20.90;50.20;;;;;;4958537;28;20030;-71
2022/01/16 09:45:17;;;;;;;9.85;4.18;;;20.90;50.20;;;;;;4973555;28;20033;-71
2022/01/16 09:47:44;;;;;;;10.65;4.10;;;20.90;50.10;;;;;;4955205;28;20122;-71
2022/01/16 09:50:11;;;;;;;8.77;3.90;;;20.90;50.30;;;;;;4939027;29;20407;-71
2022/01/16 09:52:42;;;;;;;9.23;4.38;;;20.90;50.30;;;;;;4956949;28;20028;-71
2022/01/16 09:55:09;;;;;;;9.75;4.50;;;20.90;50.50;;;;;;4975643;28;20027;-71
2022/01/16 09:57:35;;;;;;;9.25;4.10;;;20.90;50.60;;;;;;4975314;28;20033;-71
2022/01/16 10:00:08;;;;;;;10.43;4.53;;;20.90;50.60;;;;;;4958093;28;20039;-71
2022/01/16 10:02:44;;;;;;;9.10;4.47;;;20.90;50.50;;;;;;4973682;28;20033;-71
2022/01/16 10:05:28;;;;;;;10.02;4.78;;;20.90;50.60;;;;;;4955523;28;20024;-71
2022/01/16 10:07:56;;;;;;;17.08;10.45;;;20.90;50.10;;;;;;4956125;28;20027;-71
2022/01/16 10:10:27;;;;;;;22.67;11.85;;;20.60;42.20;;;;;;4955790;29;20035;-71
2022/01/16 10:12:55;;;;;;;17.15;11.27;;;20.20;39.20;;;;;;4956624;28;20078;-71
2022/01/16 10:15:28;;;;;;;19.35;10.52;;;20.00;38.50;;;;;;4975288;28;20030;-71
2022/01/16 10:17:56;;;;;;;18.20;9.68;;;19.80;40.30;;;;;;4951962;28;20507;-71
2022/01/16 10:20:23;;;;;;;16.55;9.45;;;19.90;40.60;;;;;;4973858;28;20082;-71
2022/01/16 10:23:00;;;;;;;15.50;8.15;;;20.10;41.60;;;;;;4972773;28;20030;-71
2022/01/16 10:25:47;;;;;;;16.90;7.72;;;20.20;41.80;;;;;;4956146;28;20039;-71
2022/01/16 10:28:22;;;;;;;15.73;7.93;;;20.40;43.60;;;;;;4956941;28;20027;-71
2022/01/16 10:30:51;;;;;;;13.75;7.05;;;20.40;43.20;;;;;;4955420;28;20038;-71
2022/01/16 10:33:19;;;;;;;14.95;6.78;;;20.50;44.10;;;;;;4974691;28;20031;-71
2022/01/16 10:35:47;;;;;;;22.75;7.30;;;20.60;44.30;;;;;;4972724;28;20033;-70
2022/01/16 10:38:28;;;;;;;14.30;7.55;;;20.60;44.90;;;;;;4973790;28;20073;-71
2022/01/16 10:40:58;;;;;;;14.13;6.82;;;20.70;44.40;;;;;;4966791;28;20403;-71
2022/01/16 10:43:42;;;;;;;19.75;7.32;;;20.60;45.80;;;;;;4970260;28;20035;-71
2022/01/16 10:46:09;;;;;;;13.15;6.78;;;20.70;45.50;;;;;;4974707;28;20049;-71
2022/01/16 10:48:38;;;;;;;13.30;6.80;;;20.70;45.60;;;;;;4972055;28;20039;-71
2022/01/16 10:51:04;;;;;;;13.45;6.15;;;20.70;45.90;;;;;;4956187;28;20077;-71
2022/01/16 10:53:32;;;;;;;12.32;6.75;;;20.70;46.10;;;;;;4952396;28;20082;-71
2022/01/16 10:56:04;;;;;;;15.13;6.43;;;20.70;46.30;;;;;;4953815;29;20023;-71
2022/01/16 10:58:38;;;;;;;14.63;6.10;;;20.70;46.50;;;;;;4953993;29;20035;-71
2022/01/16 11:01:10;;;;;;;16.52;6.13;;;20.70;46.80;;;;;;4961968;28;20050;-70
2022/01/16 11:03:41;;;;;;;12.90;5.82;;;20.80;47.00;;;;;;4954097;29;20039;-71
2022/01/16 11:06:07;;;;;;;13.63;5.88;;;20.80;47.30;;;;;;4955000;28;20086;-71
2022/01/16 11:08:34;;;;;;;15.60;5.75;;;20.80;47.80;;;;;;4955246;28;20082;-71
2022/01/16 11:11:00;;;;;;;32.67;6.28;;;20.80;47.30;;;;;;4953748;29;20035;-72
2022/01/16 11:13:32;;;;;;;11.65;6.18;;;20.80;47.30;;;;;;4965282;28;20031;-72
2022/01/16 11:16:03;;;;;;;12.88;5.93;;;20.80;47.60;;;;;;4966756;28;20062;-72
2022/01/16 11:18:30;;;;;;;14.38;6.25;;;20.90;47.90;;;;;;4972952;28;20038;-72
2022/01/16 11:23:43;;;;;;;16.63;7.55;;;20.80;49.10;;;;;;4974224;28;20049;-72
2022/01/16 11:26:15;;;;;;;15.57;7.88;;;20.90;49.60;;;;;;4973783;28;20034;-72
2022/01/16 11:28:42;;;;;;;46.35;11.48;;;20.90;50.50;;;;;;4972888;28;20122;-72
2022/01/16 11:31:10;;;;;;;28.83;9.68;;;20.70;47.60;;;;;;4972935;28;20041;-72
2022/01/16 11:33:38;;;;;;;22.20;8.95;;;20.70;47.90;;;;;;4972492;28;20026;-72
2022/01/16 11:36:14;;;;;;;22.95;9.85;;;20.70;49.00;;;;;;4960797;28;20077;-72
2022/01/16 11:38:50;;;;;;;20.25;8.43;;;20.70;48.70;;;;;;4953159;29;20031;-72
2022/01/16 11:41:35;;;;;;;21.50;11.05;;;20.70;48.30;;;;;;4954095;28;20028;-72
2022/01/16 11:44:03;;;;;;;21.08;9.55;;;20.70;48.10;;;;;;4953104;28;20031;-72
2022/01/16 11:46:31;;;;;;;19.13;10.60;;;20.70;48.30;;;;;;4953646;28;20154;-72
2022/01/16 11:49:01;;;;;;;23.95;9.60;;;20.70;49.40;;;;;;4965704;28;20507;-72
2022/01/16 11:51:37;;;;;;;22.05;9.57;;;20.80;49.60;;;;;;4973273;28;20031;-73
2022/01/16 11:54:06;;;;;;;19.58;8.75;;;20.80;49.90;;;;;;4970392;28;20023;-71
2022/01/16 11:56:49;;;;;;;31.52;8.73;;;20.80;48.90;;;;;;4958780;28;20114;-70
2022/01/16 11:59:21;;;;;;;22.50;8.77;;;20.80;50.70;;;;;;4956928;28;20479;-70
2022/01/16 12:01:48;;;;;;;15.73;7.63;;;20.80;49.10;;;;;;4973645;28;20087;-71
2022/01/16 12:04:29;;;;;;;17.65;8.40;;;20.80;49.40;;;;;;4964685;28;20547;-70
2022/01/16 12:06:58;;;;;;;19.40;8.07;;;20.80;49.50;;;;;;4957552;28;20035;-70
2022/01/16 12:12:13;;;;;;;20.52;8.30;;;20.80;49.30;;;;;;4963095;28;20451;-70
2022/01/16 12:14:52;;;;;;;19.50;6.97;;;20.80;49.70;;;;;;4958892;28;20041;-71
2022/01/16 12:17:24;;;;;;;32.05;9.32;;;20.80;49.50;;;;;;4954115;28;20051;-70
2022/01/16 12:19:51;;;;;;;21.05;8.02;;;20.80;51.60;;;;;;4961960;28;20037;-70
2022/01/16 12:22:19;;;;;;;20.63;7.88;;;20.80;51.90;;;;;;4962412;28;20027;-70
2022/01/16 12:24:49;;;;;;;27.90;11.35;;;20.80;52.30;;;;;;4954854;28;20035;-70
2022/01/16 12:27:28;;;;;;;24.88;9.65;;;20.80;49.30;;;;;;4958918;28;20037;-70
2022/01/16 12:30:25;;;;;;;29.13;9.88;;;20.80;50.20;;;;;;4971271;28;20127;-70
2022/01/16 12:32:58;;;;;;;19.88;8.88;;;20.80;51.30;;;;;;4961967;28;20046;-70
2022/01/16 12:35:39;;;;;;;18.45;10.43;;;20.80;49.90;;;;;;4972852;28;20059;-70
2022/01/16 12:38:16;;;;;;;21.10;8.90;;;20.80;51.00;;;;;;4972827;28;20082;-70
2022/01/16 12:41:03;;;;;;;22.02;11.65;;;20.80;49.80;;;;;;4958777;28;20361;-70
2022/01/16 12:43:39;;;;;;;21.65;10.73;;;20.70;49.70;;;;;;4956002;28;20494;-70
2022/01/16 12:46:06;;;;;;;24.05;10.50;;;20.60;48.60;;;;;;4953653;28;20027;-70
2022/01/16 12:48:32;;;;;;;20.08;10.43;;;20.70;47.70;;;;;;4967649;28;20117;-70
2022/01/16 12:51:03;;;;;;;23.38;11.05;;;20.70;51.10;;;;;;4970176;28;20059;-70
2022/01/16 12:53:45;;;;;;;28.30;10.60;;;20.90;52.70;;;;;;4972945;28;20050;-69
2022/01/16 12:56:14;;;;;;;23.92;11.15;;;20.90;51.90;;;;;;4972594;28;20042;-69
2022/01/16 12:58:47;;;;;;;25.05;10.10;;;20.90;51.10;;;;;;4972816;28;20030;-71
2022/01/16 13:01:16;;;;;;;19.20;10.73;;;20.90;52.70;;;;;;4972351;28;20127;-69
2022/01/16 13:03:43;;;;;;;19.17;10.35;;;20.90;53.00;;;;;;4969495;28;20027;-69
2022/01/16 13:06:17;;;;;;;22.15;11.98;;;20.90;54.40;;;;;;4953363;28;20436;-69
2022/01/16 13:08:53;;;;;;;17.95;9.48;;;20.90;57.00;;;;;;4952128;29;20118;-70
2022/01/16 13:11:26;;;;;;;18.30;9.88;;;20.90;52.10;;;;;;4953105;28;20073;-69
2022/01/16 13:14:00;;;;;;;19.20;10.70;;;21.00;53.70;;;;;;4953411;29;20023;-70
2022/01/16 13:16:32;;;;;;;19.15;9.80;;;21.00;54.40;;;;;;4936108;29;20595;-70
2022/01/16 13:19:40;;;;;;;15.02;9.00;;;21.00;51.80;;;;;;4972276;28;20284;-68
2022/01/16 13:22:30;;;;;;;16.30;10.00;;;21.00;55.50;;;;;;4958518;28;20011;-69
2022/01/16 13:25:06;;;;;;;19.35;9.82;;;21.10;56.10;;;;;;4952278;29;20519;-70
2022/01/16 13:27:40;;;;;;;23.48;11.10;;;21.00;56.00;;;;;;4939376;29;20035;-69
2022/01/16 13:30:09;;;;;;;23.13;10.50;;;21.00;53.50;;;;;;4954348;29;20455;-70